Time;durP1;ratioP1;P1;durP2;ratioP2;P2;SDS_P1;SDS_P2;PMS_P1;PMS_P2;Temp;Humidity;BMP_temperature;BMP_pressure;BME280_temperature;BME280_humidity;BME280_pressure;Samples;Min_cycle;Max_cycle;Signal;HPM_P1;HPM_P2
2021/08/15 00:00:15;;;;;;;21.27;12.23;;;;;;;14.98;93.83;101271.59;4972173;28;20312;-80
2021/08/15 00:02:41;;;;;;;19.85;12.07;;;;;;;14.91;93.93;101262.53;4968031;28;20047;-82
2021/08/15 00:05:07;;;;;;;17.95;12.68;;;;;;;14.93;94.05;101260.47;4971935;28;20053;-82
2021/08/15 00:07:34;;;;;;;19.45;12.25;;;;;;;14.92;94.13;101253.41;4971174;28;20030;-82
2021/08/15 00:09:59;;;;;;;16.70;13.02;;;;;;;14.97;93.86;101248.28;4980502;28;20515;-81
2021/08/15 00:12:25;;;;;;;17.60;12.75;;;;;;;14.91;93.46;101245.50;4984824;28;20042;-81
2021/08/15 00:14:50;;;;;;;22.33;13.25;;;;;;;14.90;93.20;101247.31;4978037;28;20558;-83
2021/08/15 00:17:15;;;;;;;21.17;13.70;;;;;;;14.87;93.55;101253.97;5002769;28;20052;-82
2021/08/15 00:19:41;;;;;;;21.90;12.82;;;;;;;14.86;94.01;101259.53;4984277;28;20129;-82
2021/08/15 00:22:06;;;;;;;21.95;13.40;;;;;;;14.86;94.01;101264.94;4986022;28;20066;-81
2021/08/15 00:24:35;;;;;;;19.83;12.75;;;;;;;14.83;94.27;101268.00;4987407;28;20042;-82
2021/08/15 00:27:00;;;;;;;21.23;12.55;;;;;;;14.76;94.36;101259.78;4987840;28;20133;-82
2021/08/15 00:29:26;;;;;;;18.75;12.65;;;;;;;14.76;94.54;101250.81;4985703;28;20141;-81
2021/08/15 00:31:52;;;;;;;20.00;12.18;;;;;;;14.81;94.38;101248.41;5001249;28;20048;-80
2021/08/15 00:34:17;;;;;;;19.85;11.98;;;;;;;14.80;94.62;101250.28;4987963;28;20140;-81
2021/08/15 00:36:43;;;;;;;19.17;12.13;;;;;;;14.71;94.52;101245.97;4980537;28;20043;-82
2021/08/15 00:39:08;;;;;;;19.45;12.63;;;;;;;14.73;94.96;101253.88;4980848;28;20045;-80
2021/08/15 00:41:34;;;;;;;16.83;12.05;;;;;;;14.70;94.95;101254.25;4980564;28;20111;-81
2021/08/15 00:44:01;;;;;;;22.23;14.25;;;;;;;14.69;94.92;101247.16;4979087;28;20448;-81
2021/08/15 00:46:28;;;;;;;25.17;16.45;;;;;;;14.67;95.06;101239.22;4980560;28;20042;-81
2021/08/15 00:48:53;;;;;;;22.15;17.83;;;;;;;14.65;94.65;101241.28;4976214;28;20054;-80
2021/08/15 00:51:18;;;;;;;21.73;14.93;;;;;;;14.69;94.51;101247.16;5002561;28;20042;-82
2021/08/15 00:53:44;;;;;;;16.75;12.63;;;;;;;14.66;94.49;101235.69;4979821;28;20049;-83
2021/08/15 00:56:09;;;;;;;18.27;12.88;;;;;;;14.68;94.42;101242.81;4986312;28;20092;-81
2021/08/15 00:58:38;;;;;;;19.92;13.27;;;;;;;14.66;94.10;101240.25;4986457;28;20699;-83
2021/08/15 01:01:05;;;;;;;20.70;12.52;;;;;;;14.58;94.64;101227.66;5000113;28;20126;-83
2021/08/15 01:03:31;;;;;;;19.83;13.10;;;;;;;14.59;94.49;101223.94;4980286;28;20046;-82
2021/08/15 01:05:58;;;;;;;22.60;13.90;;;;;;;14.51;94.90;101220.44;4984578;28;20053;-81
2021/08/15 01:08:24;;;;;;;19.90;13.57;;;;;;;14.54;95.09;101229.03;4998077;28;20393;-82
2021/08/15 01:10:49;;;;;;;19.15;13.60;;;;;;;14.53;94.51;101227.38;4977207;28;20344;-81
2021/08/15 01:13:15;;;;;;;18.13;13.20;;;;;;;14.50;94.95;101225.00;5005538;28;20480;-81
2021/08/15 01:15:40;;;;;;;19.05;14.02;;;;;;;14.47;94.76;101222.63;4986238;28;20057;-80
2021/08/15 01:18:23;;;;;;;20.83;14.00;;;;;;;14.48;95.03;101221.63;4984915;28;20054;-82
2021/08/15 01:21:18;;;;;;;20.65;12.82;;;;;;;14.48;94.79;101229.72;4986263;28;20050;-82
2021/08/15 01:23:45;;;;;;;21.85;12.98;;;;;;;14.45;95.01;101214.72;4987162;28;20098;-82
2021/08/15 01:26:16;;;;;;;18.70;12.73;;;;;;;14.46;95.28;101218.25;4986586;28;20135;-82
2021/08/15 01:28:42;;;;;;;16.48;11.43;;;;;;;14.45;94.73;101219.28;4956198;28;20096;-82
2021/08/15 01:31:11;;;;;;;17.45;12.27;;;;;;;14.48;95.18;101218.94;4987779;28;20399;-80
2021/08/15 01:33:41;;;;;;;18.30;12.70;;;;;;;14.53;95.12;101213.88;5000315;28;20126;-81
2021/08/15 01:36:08;;;;;;;18.90;13.63;;;;;;;14.56;95.13;101202.69;4988147;28;20039;-82
2021/08/15 01:38:36;;;;;;;18.20;13.00;;;;;;;14.57;94.86;101207.06;4987024;28;20407;-81
2021/08/15 01:41:02;;;;;;;20.83;13.60;;;;;;;14.59;94.53;101210.44;4967816;28;20043;-81
2021/08/15 01:43:28;;;;;;;18.70;13.55;;;;;;;14.62;94.77;101201.16;4975935;28;20109;-82
2021/08/15 01:45:54;;;;;;;20.17;13.95;;;;;;;14.61;95.19;101200.28;4987434;28;20232;-81
2021/08/15 01:48:20;;;;;;;19.10;12.60;;;;;;;14.64;94.87;101207.19;4987327;28;20050;-81
2021/08/15 01:50:46;;;;;;;20.90;13.57;;;;;;;14.63;95.16;101200.94;5001972;28;20043;-82
2021/08/15 01:53:15;;;;;;;18.48;13.10;;;;;;;14.66;95.08;101200.59;4985476;28;20088;-80
2021/08/15 01:55:41;;;;;;;18.63;13.48;;;;;;;14.75;95.34;101198.66;4985079;28;20054;-83
2021/08/15 01:58:08;;;;;;;18.80;13.57;;;;;;;14.77;94.42;101201.19;4987100;28;20264;-82
2021/08/15 02:00:35;;;;;;;20.90;13.70;;;;;;;14.75;95.03;101198.66;4983050;28;20577;-82
2021/08/15 02:03:00;;;;;;;20.00;13.77;;;;;;;14.79;94.81;101188.34;4976799;28;20116;-81
2021/08/15 02:05:26;;;;;;;20.20;13.75;;;;;;;14.79;94.77;101178.38;4973990;28;20089;-80
2021/08/15 02:07:54;;;;;;;17.52;13.18;;;;;;;14.82;94.74;101183.41;4991668;28;20038;-81
2021/08/15 02:10:25;;;;;;;20.80;14.40;;;;;;;14.81;94.75;101167.38;4988442;28;20054;-80
2021/08/15 02:12:51;;;;;;;19.50;14.15;;;;;;;14.76;94.78;101172.47;4972371;28;20050;-83
2021/08/15 02:15:17;;;;;;;20.95;15.05;;;;;;;14.78;95.17;101170.44;4978418;28;20042;-81
2021/08/15 02:17:43;;;;;;;19.15;14.90;;;;;;;14.75;95.10;101158.13;4979249;28;20137;-82
2021/08/15 02:20:09;;;;;;;23.45;14.77;;;;;;;14.74;95.02;101152.94;4975974;28;20144;-84
2021/08/15 02:22:34;;;;;;;20.27;14.25;;;;;;;14.74;95.12;101155.63;4975117;28;20113;-81
2021/08/15 02:24:59;;;;;;;19.70;13.45;;;;;;;14.77;94.97;101155.25;5009682;28;20118;-82
2021/08/15 02:27:25;;;;;;;21.42;14.27;;;;;;;14.74;94.39;101153.75;4993431;28;20120;-81
2021/08/15 02:29:51;;;;;;;21.48;13.73;;;;;;;14.66;95.23;101149.25;4973339;28;20449;-80
2021/08/15 02:32:17;;;;;;;23.30;15.48;;;;;;;14.62;95.36;101147.13;4979806;28;20051;-80
2021/08/15 02:34:42;;;;;;;19.38;14.10;;;;;;;14.61;95.05;101140.03;4979543;28;20054;-81
2021/08/15 02:37:07;;;;;;;22.15;14.10;;;;;;;14.54;95.38;101136.38;4977982;28;20050;-81
2021/08/15 02:39:33;;;;;;;19.52;13.10;;;;;;;14.55;95.51;101128.09;5006712;28;20098;-81
2021/08/15 02:41:58;;;;;;;20.20;14.68;;;;;;;14.56;95.64;101137.06;4973180;28;20120;-81
2021/08/15 02:44:23;;;;;;;23.42;14.27;;;;;;;14.59;95.43;101136.69;4975346;28;20851;-83
2021/08/15 02:46:49;;;;;;;23.05;15.70;;;;;;;14.54;95.45;101137.22;4977391;28;20219;-81
2021/08/15 02:49:14;;;;;;;25.48;15.35;;;;;;;14.49;95.52;101134.19;4979564;28;20507;-83
2021/08/15 02:51:39;;;;;;;25.90;16.08;;;;;;;14.51;95.53;101129.44;4978540;28;20377;-81
2021/08/15 02:54:05;;;;;;;22.50;16.05;;;;;;;14.52;95.57;101123.06;4977823;28;20064;-82
2021/08/15 02:56:30;;;;;;;24.40;15.90;;;;;;;14.47;96.08;101125.41;4978119;28;20320;-81
2021/08/15 02:58:55;;;;;;;26.13;16.67;;;;;;;14.45;95.90;101125.63;4980292;28;20054;-83
2021/08/15 03:01:21;;;;;;;24.17;15.20;;;;;;;14.49;96.02;101122.56;4976413;28;20124;-80
2021/08/15 03:03:46;;;;;;;25.58;16.60;;;;;;;14.53;96.03;101132.84;4977682;28;20133;-81
2021/08/15 03:06:11;;;;;;;25.67;17.00;;;;;;;14.56;96.39;101129.78;4974857;28;20188;-81
2021/08/15 03:08:37;;;;;;;23.20;16.92;;;;;;;14.56;96.64;101134.34;4975565;28;20045;-81
2021/08/15 03:11:02;;;;;;;24.20;17.05;;;;;;;14.58;96.70;101122.31;4977698;28;20517;-82
2021/08/15 03:13:27;;;;;;;27.50;17.27;;;;;;;14.65;96.16;101135.97;4974461;28;20577;-80
2021/08/15 03:15:53;;;;;;;23.42;16.45;;;;;;;14.70;96.75;101130.00;4975813;28;20360;-81
2021/08/15 03:18:18;;;;;;;23.77;15.82;;;;;;;14.71;95.68;101115.47;4960986;28;20057;-82
2021/08/15 03:20:44;;;;;;;20.23;15.32;;;;;;;14.74;95.46;101109.72;4977327;28;20054;-82
2021/08/15 03:23:10;;;;;;;23.50;16.48;;;;;;;14.75;95.80;101116.78;4973664;28;20088;-80
2021/08/15 03:25:37;;;;;;;22.60;15.82;;;;;;;14.72;95.42;101114.44;4978804;28;20336;-81
2021/08/15 03:28:04;;;;;;;25.50;16.13;;;;;;;14.66;95.73;101107.91;4981620;28;20506;-81
2021/08/15 03:30:29;;;;;;;25.60;16.35;;;;;;;14.59;95.49;101102.41;4985450;28;20049;-80
2021/08/15 03:32:55;;;;;;;21.27;16.45;;;;;;;14.56;95.69;101101.94;4979404;28;20046;-81
2021/08/15 03:35:20;;;;;;;23.27;15.75;;;;;;;14.55;95.61;101106.47;4977170;28;20510;-81
2021/08/15 03:37:45;;;;;;;27.00;16.20;;;;;;;14.51;96.03;101088.13;4978348;28;20084;-83
2021/08/15 03:40:11;;;;;;;23.20;15.13;;;;;;;14.43;96.17;101094.41;4978025;28;20078;-81
2021/08/15 03:42:37;;;;;;;23.67;16.55;;;;;;;14.45;96.50;101095.91;4970133;28;20129;-80
2021/08/15 03:45:04;;;;;;;23.27;16.33;;;;;;;14.42;96.15;101090.06;4976478;28;20050;-83
2021/08/15 03:47:31;;;;;;;21.08;15.30;;;;;;;14.36;96.59;101086.22;4980233;28;20418;-81
2021/08/15 03:49:58;;;;;;;23.35;16.25;;;;;;;14.34;97.03;101087.41;4977925;28;20062;-81
2021/08/15 03:52:23;;;;;;;24.90;16.40;;;;;;;14.34;96.78;101087.41;4975298;28;20504;-83
2021/08/15 03:54:48;;;;;;;25.20;15.77;;;;;;;14.30;97.03;101077.97;4977367;28;20134;-80
2021/08/15 03:57:14;;;;;;;24.70;17.55;;;;;;;14.31;96.84;101080.50;4975408;28;20330;-81
2021/08/15 03:59:39;;;;;;;23.92;15.60;;;;;;;14.34;96.29;101079.31;4987904;28;20047;-82
2021/08/15 04:02:04;;;;;;;23.92;15.98;;;;;;;14.25;96.61;101069.63;4975452;28;20054;-81
2021/08/15 04:04:30;;;;;;;27.63;17.45;;;;;;;14.26;96.98;101068.59;4958213;28;20046;-82
2021/08/15 04:06:55;;;;;;;24.92;16.50;;;;;;;14.24;96.94;101074.16;4974791;28;20046;-82
2021/08/15 04:09:20;;;;;;;26.05;16.65;;;;;;;14.28;96.55;101090.84;4976971;28;20502;-83
2021/08/15 04:11:46;;;;;;;25.73;17.20;;;;;;;14.23;96.25;101094.91;4978198;28;20686;-83
2021/08/15 04:14:11;;;;;;;26.63;16.67;;;;;;;14.19;97.11;101099.00;4975452;28;20444;-81
2021/08/15 04:16:36;;;;;;;24.33;16.55;;;;;;;14.20;97.30;101086.34;4954905;28;20094;-81
2021/08/15 04:19:02;;;;;;;22.98;15.85;;;;;;;14.22;96.89;101073.50;4972364;28;20104;-83
2021/08/15 04:21:27;;;;;;;25.25;17.58;;;;;;;14.18;96.93;101073.03;4972105;28;20499;-82
2021/08/15 04:23:53;;;;;;;25.90;17.05;;;;;;;14.14;97.30;101073.56;4993903;28;20057;-82
2021/08/15 04:26:18;;;;;;;23.83;16.33;;;;;;;14.10;97.33;101073.09;4979873;28;20076;-80
2021/08/15 04:28:44;;;;;;;26.23;16.73;;;;;;;14.11;97.22;101066.69;4979117;28;20042;-82
2021/08/15 04:31:09;;;;;;;25.40;17.23;;;;;;;14.14;97.16;101078.97;4975046;28;20161;-82
2021/08/15 04:33:36;;;;;;;23.80;17.55;;;;;;;14.10;97.02;101078.50;4961312;28;20070;-82
2021/08/15 04:36:01;;;;;;;26.88;18.25;;;;;;;14.10;97.27;101083.91;4967094;28;20051;-82
2021/08/15 04:38:27;;;;;;;29.73;17.25;;;;;;;14.11;96.86;101085.56;4975104;28;20039;-81
2021/08/15 04:40:52;;;;;;;27.63;18.70;;;;;;;14.13;97.09;101085.41;4959933;28;20511;-81
2021/08/15 04:43:18;;;;;;;25.05;17.60;;;;;;;14.13;97.26;101097.03;4954686;28;20043;-81
2021/08/15 04:45:45;;;;;;;27.83;17.70;;;;;;;14.19;97.19;101095.47;4958245;28;20276;-83
2021/08/15 04:48:12;;;;;;;26.63;18.58;;;;;;;14.26;97.13;101085.63;4957283;28;20445;-84
2021/08/15 04:50:39;;;;;;;27.00;18.27;;;;;;;14.28;97.83;101085.44;4956102;28;20066;-83
2021/08/15 04:53:05;;;;;;;30.88;20.88;;;;;;;14.34;97.72;101082.03;4960564;28;20051;-81
2021/08/15 04:55:30;;;;;;;37.83;24.52;;;;;;;14.41;97.16;101091.06;4961211;28;20109;-82
2021/08/15 04:57:56;;;;;;;34.13;23.25;;;;;;;14.42;97.32;101084.66;4959629;28;20059;-80
2021/08/15 05:00:22;;;;;;;39.33;24.67;;;;;;;14.47;96.99;101076.81;4962496;28;20043;-81
2021/08/15 05:02:47;;;;;;;37.60;26.05;;;;;;;14.55;97.08;101084.88;4961869;28;20043;-80
2021/08/15 05:05:13;;;;;;;35.75;23.83;;;;;;;14.57;96.77;101076.59;4959963;28;20137;-81
2021/08/15 05:07:38;;;;;;;38.92;24.27;;;;;;;14.60;96.78;101077.06;4959161;28;20101;-81
2021/08/15 05:10:05;;;;;;;39.00;24.58;;;;;;;14.63;96.31;101079.41;4960612;28;20078;-82
2021/08/15 05:12:31;;;;;;;40.00;25.40;;;;;;;14.69;96.66;101074.31;4958464;28;20512;-81
2021/08/15 05:14:56;;;;;;;39.15;25.33;;;;;;;14.74;96.92;101067.31;4960723;28;20121;-82
2021/08/15 05:17:22;;;;;;;40.13;25.58;;;;;;;14.81;96.66;101065.53;4956160;28;20202;-81
2021/08/15 05:19:47;;;;;;;39.10;25.45;;;;;;;14.91;96.11;101057.19;4962200;28;20047;-82
2021/08/15 05:22:12;;;;;;;38.03;27.30;;;;;;;14.96;96.53;101060.16;4959709;28;20158;-82
2021/08/15 05:24:38;;;;;;;37.67;24.65;;;;;;;15.04;95.87;101056.50;4953898;28;20047;-81
2021/08/15 05:27:03;;;;;;;41.00;25.60;;;;;;;15.11;95.79;101052.06;4954531;28;20046;-83
2021/08/15 05:29:29;;;;;;;39.53;25.77;;;;;;;15.17;94.92;101040.47;4961494;28;20043;-81
2021/08/15 05:31:54;;;;;;;40.17;27.02;;;;;;;15.26;95.22;101043.91;4976156;28;20415;-81
2021/08/15 05:34:19;;;;;;;37.88;26.95;;;;;;;15.33;94.82;101034.00;4943135;28;20122;-81
2021/08/15 05:36:45;;;;;;;38.70;26.30;;;;;;;15.41;95.38;101033.06;4960122;28;20058;-80
2021/08/15 05:39:10;;;;;;;40.58;25.48;;;;;;;15.49;95.58;101033.78;4961891;28;20051;-81
2021/08/15 05:41:35;;;;;;;44.83;28.70;;;;;;;15.54;95.27;101042.19;4954223;28;20529;-81
2021/08/15 05:44:01;;;;;;;42.15;27.80;;;;;;;15.69;94.05;101033.22;4959632;28;20050;-82
2021/08/15 05:46:26;;;;;;;41.97;28.13;;;;;;;15.78;93.93;101015.81;4957600;28;20058;-82
2021/08/15 05:48:51;;;;;;;41.13;27.77;;;;;;;15.86;93.99;101031.94;4958889;28;20061;-81
2021/08/15 05:51:17;;;;;;;42.88;27.77;;;;;;;15.95;93.25;101028.06;4961836;28;20061;-80
2021/08/15 05:53:42;;;;;;;41.90;27.27;;;;;;;16.05;93.00;101029.59;4956544;28;20082;-80
2021/08/15 05:56:07;;;;;;;38.28;26.73;;;;;;;16.13;92.65;101015.94;4956692;28;20089;-81
2021/08/15 05:58:34;;;;;;;41.28;25.85;;;;;;;16.20;92.47;101014.97;4963325;28;20039;-81
2021/08/15 06:01:01;;;;;;;42.13;26.13;;;;;;;16.28;92.73;101022.09;4959788;28;20047;-81
2021/08/15 06:03:27;;;;;;;38.58;25.88;;;;;;;16.34;91.78;101009.63;4974335;28;20038;-81
2021/08/15 06:05:52;;;;;;;34.83;23.98;;;;;;;16.42;92.21;101017.63;4956445;28;20038;-81
2021/08/15 06:08:17;;;;;;;35.67;23.65;;;;;;;16.47;91.49;101018.69;4957101;28;20114;-81
2021/08/15 06:10:43;;;;;;;34.97;25.30;;;;;;;16.58;91.06;101016.50;4962145;28;20732;-82
2021/08/15 06:13:10;;;;;;;34.53;25.15;;;;;;;16.64;90.95;101021.09;4975628;28;20046;-82
2021/08/15 06:15:36;;;;;;;37.80;23.20;;;;;;;16.67;90.27;101020.72;4953485;28;20089;-81
2021/08/15 06:18:02;;;;;;;39.08;23.77;;;;;;;16.68;90.87;101016.94;4959841;28;20074;-81
2021/08/15 06:20:28;;;;;;;42.10;25.98;;;;;;;16.72;91.06;101031.78;4955794;28;20043;-81
2021/08/15 06:22:55;;;;;;;33.40;24.48;;;;;;;16.74;91.12;101026.16;4943656;28;20062;-81
2021/08/15 06:25:21;;;;;;;39.20;24.05;;;;;;;16.77;90.23;101026.63;4954548;28;20121;-82
2021/08/15 06:27:46;;;;;;;38.53;23.23;;;;;;;16.84;89.70;101022.09;4976123;28;20130;-82
2021/08/15 06:30:18;;;;;;;38.35;24.77;;;;;;;16.85;90.23;101017.50;4957386;28;20050;-83
2021/08/15 06:32:48;;;;;;;32.15;22.50;;;;;;;16.86;90.38;101020.03;4990626;28;20121;-80
2021/08/15 06:35:22;;;;;;;39.67;24.17;;;;;;;16.96;89.85;101010.69;4979722;28;20054;-82
2021/08/15 06:37:52;;;;;;;32.60;23.42;;;;;;;17.02;89.86;101010.72;4978686;28;20046;-81
2021/08/15 06:40:17;;;;;;;38.20;24.85;;;;;;;17.04;89.96;101005.09;4978647;28;20222;-83
2021/08/15 06:42:44;;;;;;;39.95;23.67;;;;;;;17.07;89.66;101010.94;4971476;28;20359;-82
2021/08/15 06:45:09;;;;;;;32.28;22.15;;;;;;;17.11;89.74;101016.81;4972330;28;20363;-81
2021/08/15 06:47:35;;;;;;;32.35;22.05;;;;;;;17.13;89.61;101014.72;4978556;28;20595;-80
2021/08/15 06:50:03;;;;;;;38.20;23.42;;;;;;;17.21;89.40;101008.31;4979024;28;20499;-83
2021/08/15 06:52:29;;;;;;;33.05;23.10;;;;;;;17.29;89.44;101014.38;4993508;28;20450;-83
2021/08/15 06:54:56;;;;;;;33.25;22.05;;;;;;;17.39;89.70;101018.59;4976798;28;20359;-82
2021/08/15 06:57:21;;;;;;;32.45;21.92;;;;;;;17.49;88.61;101010.88;4960009;28;20038;-81
2021/08/15 06:59:46;;;;;;;32.85;20.40;;;;;;;17.56;88.01;101018.00;4974364;28;20097;-82
2021/08/15 07:02:12;;;;;;;30.25;20.17;;;;;;;17.60;88.00;101018.44;4978562;28;20125;-80
2021/08/15 07:04:37;;;;;;;32.05;19.25;;;;;;;17.57;88.57;101008.81;4973966;28;20380;-82
2021/08/15 07:07:03;;;;;;;32.38;20.48;;;;;;;17.60;88.30;101016.53;4974895;28;20066;-83
2021/08/15 07:09:28;;;;;;;32.65;20.70;;;;;;;17.67;87.47;101010.31;4975530;28;20255;-82
2021/08/15 07:11:53;;;;;;;30.15;19.52;;;;;;;17.66;88.34;101003.19;4979355;28;20112;-81
2021/08/15 07:14:18;;;;;;;29.42;19.08;;;;;;;17.69;87.50;100997.38;4960728;28;20039;-81
2021/08/15 07:16:44;;;;;;;28.85;18.95;;;;;;;17.69;87.10;101003.63;4958689;28;20043;-82
2021/08/15 07:19:09;;;;;;;28.92;18.73;;;;;;;17.67;87.78;101010.31;4977212;28;20042;-82
2021/08/15 07:21:34;;;;;;;30.95;18.48;;;;;;;17.69;87.63;100995.47;4939371;28;20133;-82
2021/08/15 07:24:00;;;;;;;26.95;17.73;;;;;;;17.84;87.73;101000.78;4989388;28;20518;-82
2021/08/15 07:26:26;;;;;;;28.58;17.98;;;;;;;17.92;87.10;100997.84;4977785;28;20050;-82
2021/08/15 07:28:53;;;;;;;26.13;17.90;;;;;;;18.05;86.31;100997.03;4975573;28;20050;-81
2021/08/15 07:31:18;;;;;;;28.70;17.65;;;;;;;18.20;86.41;101000.34;4977862;28;20086;-83
2021/08/15 07:33:43;;;;;;;27.23;17.05;;;;;;;18.28;85.64;100999.31;4987993;28;20142;-82
2021/08/15 07:36:09;;;;;;;26.30;17.75;;;;;;;18.36;84.93;100998.28;4983720;28;20049;-82
2021/08/15 07:38:34;;;;;;;28.75;18.67;;;;;;;18.46;84.49;101007.66;4983121;28;20127;-81
2021/08/15 07:41:00;;;;;;;24.70;17.08;;;;;;;18.59;84.49;100992.38;4981027;28;20511;-81
2021/08/15 07:43:25;;;;;;;24.40;16.77;;;;;;;18.74;85.21;100984.03;4982724;28;20057;-85
2021/08/15 07:45:51;;;;;;;24.33;16.08;;;;;;;18.82;83.02;100990.06;4981168;28;21127;-82
2021/08/15 07:48:17;;;;;;;26.80;16.67;;;;;;;18.94;83.65;100995.66;4984200;28;20283;-83
2021/08/15 07:50:42;;;;;;;23.27;15.93;;;;;;;19.00;83.28;100988.53;4982701;28;20479;-80
2021/08/15 07:53:22;;;;;;;23.38;17.00;;;;;;;19.05;82.88;100999.59;4984140;28;20814;-81
2021/08/15 07:55:49;;;;;;;21.15;15.48;;;;;;;19.22;82.23;100997.22;4981390;28;20038;-84
2021/08/15 07:58:14;;;;;;;29.48;16.70;;;;;;;19.31;82.64;100990.50;4982335;28;20034;-82
2021/08/15 08:00:40;;;;;;;23.83;15.05;;;;;;;19.37;81.41;100985.00;4983668;28;20065;-81
2021/08/15 08:03:05;;;;;;;22.15;15.40;;;;;;;19.42;81.01;100992.53;4981132;28;20061;-82
2021/08/15 08:05:31;;;;;;;24.60;15.00;;;;;;;19.50;81.60;100980.53;4981089;28;20089;-82
2021/08/15 08:07:57;;;;;;;22.80;15.52;;;;;;;19.65;80.76;100986.56;4979860;28;20530;-82
2021/08/15 08:10:22;;;;;;;24.00;15.73;;;;;;;19.72;80.15;100983.78;4981821;28;20105;-83
2021/08/15 08:12:48;;;;;;;22.80;14.45;;;;;;;19.77;79.10;100979.34;4981084;28;20042;-82
2021/08/15 08:15:14;;;;;;;19.55;13.60;;;;;;;19.81;80.04;100977.84;4982710;28;20101;-83
2021/08/15 08:17:39;;;;;;;22.63;14.88;;;;;;;19.89;79.92;100976.75;4974234;28;20501;-83
2021/08/15 08:20:05;;;;;;;23.20;13.98;;;;;;;20.05;79.95;100980.78;4975712;28;20047;-81
2021/08/15 08:22:31;;;;;;;20.58;14.65;;;;;;;20.16;78.59;100971.06;4977004;28;20554;-81
2021/08/15 08:24:56;;;;;;;21.52;14.07;;;;;;;20.34;78.63;100971.13;4979361;28;20050;-83
2021/08/15 08:27:21;;;;;;;19.63;12.63;;;;;;;20.39;76.77;100960.34;4982851;28;20030;-83
2021/08/15 08:29:48;;;;;;;18.88;12.45;;;;;;;20.46;76.12;100965.75;4983056;28;20031;-83
2021/08/15 08:32:14;;;;;;;18.98;12.50;;;;;;;20.34;75.24;100962.09;4981850;28;20077;-84
2021/08/15 08:34:39;;;;;;;20.00;13.32;;;;;;;20.35;76.79;100956.44;4988070;28;20734;-82
2021/08/15 08:37:05;;;;;;;21.40;11.38;;;;;;;20.34;75.74;100960.22;5003780;28;20042;-81
2021/08/15 08:39:30;;;;;;;18.88;11.45;;;;;;;20.40;74.98;100961.19;4980892;28;20046;-82
2021/08/15 08:42:01;;;;;;;16.73;10.50;;;;;;;20.47;74.00;100959.25;4988226;28;20072;-84
2021/08/15 08:44:29;;;;;;;20.92;11.57;;;;;;;20.59;74.44;100956.63;4982915;28;20038;-83
2021/08/15 08:47:02;;;;;;;22.33;12.30;;;;;;;20.57;73.33;100956.03;4974528;28;20039;-82
2021/08/15 08:49:27;;;;;;;16.75;10.82;;;;;;;20.58;72.25;100952.25;4982756;28;20047;-83
2021/08/15 08:51:54;;;;;;;19.45;11.82;;;;;;;20.62;73.09;100950.72;4966504;28;20063;-83
2021/08/15 08:54:20;;;;;;;20.77;12.23;;;;;;;20.79;74.32;100942.78;4960573;28;20065;-83
2021/08/15 08:56:45;;;;;;;19.50;10.43;;;;;;;20.91;73.11;100947.22;4965167;28;20307;-81
2021/08/15 08:59:10;;;;;;;14.88;8.82;;;;;;;21.03;70.72;100949.19;5012974;28;20042;-82
2021/08/15 09:01:41;;;;;;;14.65;8.70;;;;;;;21.13;69.18;100952.22;4970016;28;20486;-83
2021/08/15 09:04:06;;;;;;;15.55;9.50;;;;;;;21.21;69.60;100948.34;4982560;28;20054;-82
2021/08/15 09:06:32;;;;;;;19.00;8.13;;;;;;;21.40;68.86;100944.50;4983998;28;20368;-83
2021/08/15 09:09:09;;;;;;;14.13;8.32;;;;;;;21.56;66.98;100932.09;4986130;28;20292;-82
2021/08/15 09:11:34;;;;;;;14.05;7.60;;;;;;;21.54;68.42;100945.97;4987577;28;20047;-83
2021/08/15 09:14:11;;;;;;;13.40;6.93;;;;;;;21.45;65.44;100930.16;4980039;28;20039;-82
2021/08/15 09:16:55;;;;;;;12.07;6.45;;;;;;;21.62;65.00;100944.81;4984178;28;20050;-84
2021/08/15 09:19:37;;;;;;;14.60;6.85;;;;;;;21.75;64.87;100939.16;4979083;28;20039;-84
2021/08/15 09:22:16;;;;;;;14.35;7.13;;;;;;;21.82;63.68;100937.13;4999034;28;20055;-82
2021/08/15 09:24:49;;;;;;;13.63;7.32;;;;;;;21.81;64.08;100935.47;4998292;28;20527;-83
2021/08/15 09:27:36;;;;;;;16.48;6.93;;;;;;;21.82;64.34;100933.56;4984884;28;20053;-83
2021/08/15 09:30:21;;;;;;;12.00;7.72;;;;;;;21.81;64.60;100938.22;4976189;28;20081;-83
2021/08/15 09:32:58;;;;;;;11.40;7.38;;;;;;;21.81;66.39;100938.22;4985036;28;20120;-84
2021/08/15 09:35:44;;;;;;;14.52;7.65;;;;;;;21.81;65.42;100935.47;4982194;28;20103;-83
2021/08/15 09:38:16;;;;;;;11.27;7.53;;;;;;;21.75;65.52;100935.56;4977069;28;20054;-83
2021/08/15 09:40:43;;;;;;;13.48;7.53;;;;;;;21.68;66.26;100934.84;4966575;28;20117;-84
2021/08/15 09:43:10;;;;;;;16.65;9.25;;;;;;;21.65;67.58;100933.41;4985973;28;20075;-82
2021/08/15 09:45:38;;;;;;;13.77;8.73;;;;;;;21.68;67.39;100934.84;4982742;28;20038;-83
2021/08/15 09:48:39;;;;;;;13.73;7.88;;;;;;;21.52;67.63;100937.22;5002956;28;20538;-83
2021/08/15 09:51:14;;;;;;;15.85;7.97;;;;;;;21.57;68.26;100928.28;4992098;28;20360;-83
2021/08/15 09:53:44;;;;;;;15.90;8.13;;;;;;;21.61;67.43;100934.97;4983476;28;20050;-84
2021/08/15 09:56:10;;;;;;;14.35;8.90;;;;;;;21.64;67.97;100923.56;4997756;28;20042;-82
2021/08/15 09:58:36;;;;;;;16.45;7.57;;;;;;;21.74;67.54;100929.28;4979091;28;20089;-83
2021/08/15 10:01:04;;;;;;;13.90;7.03;;;;;;;21.80;66.74;100925.59;4980681;28;20249;-84
2021/08/15 10:03:31;;;;;;;14.40;8.07;;;;;;;21.80;66.12;100931.06;4980740;28;20133;-84
2021/08/15 10:05:58;;;;;;;13.85;7.78;;;;;;;21.82;67.22;100919.91;4981035;28;20828;-84
2021/08/15 10:08:23;;;;;;;13.63;7.75;;;;;;;21.84;67.04;100915.88;4982380;28;20085;-84
2021/08/15 10:10:50;;;;;;;11.85;7.38;;;;;;;21.97;68.21;100914.00;4983450;28;20452;-83
2021/08/15 10:13:17;;;;;;;13.73;7.78;;;;;;;22.13;67.69;100918.75;4985273;28;20137;-83
2021/08/15 10:15:51;;;;;;;12.48;7.75;;;;;;;22.12;66.57;100916.25;4982519;28;20398;-84
2021/08/15 10:18:19;;;;;;;14.48;7.95;;;;;;;22.01;65.19;100909.69;4982217;28;20776;-84
2021/08/15 10:20:47;;;;;;;13.43;7.32;;;;;;;21.96;65.56;100902.22;5000436;28;20387;-85
2021/08/15 10:23:13;;;;;;;14.15;7.63;;;;;;;22.03;65.87;100899.38;4966090;28;20319;-84
2021/08/15 10:25:43;;;;;;;10.90;7.35;;;;;;;22.02;66.11;100890.34;4950897;28;20129;-83
2021/08/15 10:28:30;;;;;;;11.50;7.97;;;;;;;22.00;65.74;100894.38;4975597;28;20038;-83
2021/08/15 10:30:58;;;;;;;17.52;8.90;;;;;;;22.17;66.63;100899.97;4978524;28;20047;-82
2021/08/15 10:33:31;;;;;;;11.32;7.13;;;;;;;22.28;65.79;100897.25;4977704;28;20495;-83
2021/08/15 10:36:16;;;;;;;13.57;7.13;;;;;;;22.30;65.24;100895.13;4979451;28;20679;-82
2021/08/15 10:38:41;;;;;;;14.77;7.90;;;;;;;22.46;65.26;100895.44;4983375;28;20035;-83
2021/08/15 10:41:07;;;;;;;12.38;7.32;;;;;;;22.42;64.44;100897.84;4979491;28;20053;-84
2021/08/15 10:43:32;;;;;;;11.18;5.85;;;;;;;22.55;64.67;100879.50;4979763;28;20046;-84
2021/08/15 10:46:18;;;;;;;10.82;5.53;;;;;;;22.63;63.32;100879.13;4978614;28;20129;-83
2021/08/15 10:48:50;;;;;;;11.00;5.25;;;;;;;22.69;62.06;100887.19;4999854;28;20346;-83
2021/08/15 10:51:48;;;;;;;10.75;5.70;;;;;;;22.69;63.38;100878.97;4983444;28;20070;-84
2021/08/15 10:54:26;;;;;;;10.32;5.80;;;;;;;22.93;63.94;100881.63;4997598;28;20096;-84
2021/08/15 10:56:58;;;;;;;10.02;5.43;;;;;;;23.25;62.04;100871.06;4965316;28;20064;-84
2021/08/15 10:59:40;;;;;;;10.88;5.88;;;;;;;23.61;62.52;100863.44;4964802;28;20043;-84
2021/08/15 11:02:09;;;;;;;10.93;6.85;;;;;;;23.62;59.62;100857.72;4994456;28;20523;-83
2021/08/15 11:04:35;;;;;;;12.23;6.43;;;;;;;23.71;61.77;100860.91;4981824;28;20542;-84
2021/08/15 11:07:00;;;;;;;14.35;6.47;;;;;;;23.85;59.25;100861.38;4980978;28;20042;-83
2021/08/15 11:09:53;;;;;;;11.10;6.65;;;;;;;23.85;58.37;100864.13;4985708;28;20339;-81
2021/08/15 11:12:19;;;;;;;9.88;5.70;;;;;;;23.89;58.57;100843.38;5014736;28;20527;-84